sensor_id;sensor_type;location;lat;lon;timestamp;temperature;humidity
25877;DHT22;13692;47.480;19.216;2023-04-12T00:00:08;8.10;99.90
25877;DHT22;13692;47.480;19.216;2023-04-12T00:02:38;8.10;99.90
25877;DHT22;13692;47.480;19.216;2023-04-12T00:05:06;8.00;99.90
25877;DHT22;13692;47.480;19.216;2023-04-12T00:07:35;8.00;99.90
25877;DHT22;13692;47.480;19.216;2023-04-12T00:10:06;8.00;99.90
25877;DHT22;13692;47.480;19.216;2023-04-12T00:12:33;8.00;99.90
25877;DHT22;13692;47.480;19.216;2023-04-12T00:15:00;8.00;99.90
25877;DHT22;13692;47.480;19.216;2023-04-12T00:17:27;8.00;99.90
25877;DHT22;13692;47.480;19.216;2023-04-12T00:19:54;7.90;99.90
25877;DHT22;13692;47.480;19.216;2023-04-12T00:22:21;7.90;99.90
25877;DHT22;13692;47.480;19.216;2023-04-12T00:24:48;7.90;99.90
25877;DHT22;13692;47.480;19.216;2023-04-12T00:27:15;7.90;99.90
25877;DHT22;13692;47.480;19.216;2023-04-12T00:29:42;7.90;99.90
25877;DHT22;13692;47.480;19.216;2023-04-12T00:32:09;7.90;99.90
25877;DHT22;13692;47.480;19.216;2023-04-12T00:34:36;7.90;99.90
25877;DHT22;13692;47.480;19.216;2023-04-12T00:37:03;7.80;99.90
25877;DHT22;13692;47.480;19.216;2023-04-12T00:39:30;7.80;99.90
25877;DHT22;13692;47.480;19.216;2023-04-12T00:41:58;7.80;99.90
25877;DHT22;13692;47.480;19.216;2023-04-12T00:44:26;7.70;99.90
25877;DHT22;13692;47.480;19.216;2023-04-12T00:46:53;7.70;99.90
25877;DHT22;13692;47.480;19.216;2023-04-12T00:49:20;7.70;99.90
25877;DHT22;13692;47.480;19.216;2023-04-12T00:51:47;7.70;99.90
25877;DHT22;13692;47.480;19.216;2023-04-12T00:54:14;7.70;99.90
25877;DHT22;13692;47.480;19.216;2023-04-12T00:56:44;7.60;99.90
25877;DHT22;13692;47.480;19.216;2023-04-12T00:59:12;7.60;99.90
25877;DHT22;13692;47.480;19.216;2023-04-12T01:01:40;7.60;99.90
25877;DHT22;13692;47.480;19.216;2023-04-12T01:04:07;7.60;99.90
25877;DHT22;13692;47.480;19.216;2023-04-12T01:09:32;7.50;99.90
25877;DHT22;13692;47.480;19.216;2023-04-12T01:12:10;7.50;99.90
25877;DHT22;13692;47.480;19.216;2023-04-12T01:14:53;7.50;99.90
25877;DHT22;13692;47.480;19.216;2023-04-12T01:17:23;7.40;99.90
25877;DHT22;13692;47.480;19.216;2023-04-12T01:28:14;7.30;99.90
25877;DHT22;13692;47.480;19.216;2023-04-12T01:30:42;7.30;99.90
25877;DHT22;13692;47.480;19.216;2023-04-12T01:33:11;7.30;99.90
25877;DHT22;13692;47.480;19.216;2023-04-12T01:35:39;7.30;99.90
25877;DHT22;13692;47.480;19.216;2023-04-12T01:38:06;7.20;99.90
25877;DHT22;13692;47.480;19.216;2023-04-12T01:40:35;7.30;99.90
25877;DHT22;13692;47.480;19.216;2023-04-12T01:43:12;7.20;99.90
25877;DHT22;13692;47.480;19.216;2023-04-12T01:45:40;7.20;99.90
25877;DHT22;13692;47.480;19.216;2023-04-12T01:48:09;7.20;99.90
25877;DHT22;13692;47.480;19.216;2023-04-12T01:53:18;7.20;99.90
25877;DHT22;13692;47.480;19.216;2023-04-12T01:55:47;7.20;99.90
25877;DHT22;13692;47.480;19.216;2023-04-12T01:58:19;7.10;99.90
25877;DHT22;13692;47.480;19.216;2023-04-12T02:00:49;7.10;99.90
25877;DHT22;13692;47.480;19.216;2023-04-12T02:03:18;7.10;99.90
25877;DHT22;13692;47.480;19.216;2023-04-12T02:05:46;7.10;99.90
25877;DHT22;13692;47.480;19.216;2023-04-12T02:08:14;7.10;99.90
25877;DHT22;13692;47.480;19.216;2023-04-12T02:10:41;7.10;99.90
25877;DHT22;13692;47.480;19.216;2023-04-12T02:13:08;7.10;99.90
25877;DHT22;13692;47.480;19.216;2023-04-12T02:15:35;7.10;99.90
25877;DHT22;13692;47.480;19.216;2023-04-12T02:18:03;7.10;99.90
25877;DHT22;13692;47.480;19.216;2023-04-12T02:20:30;7.10;99.90
25877;DHT22;13692;47.480;19.216;2023-04-12T02:22:57;7.00;99.90
25877;DHT22;13692;47.480;19.216;2023-04-12T02:25:25;7.00;99.90
25877;DHT22;13692;47.480;19.216;2023-04-12T02:27:53;7.00;99.90
25877;DHT22;13692;47.480;19.216;2023-04-12T02:30:20;7.00;99.90
25877;DHT22;13692;47.480;19.216;2023-04-12T02:32:47;7.00;99.90
25877;DHT22;13692;47.480;19.216;2023-04-12T02:35:15;7.00;99.90
25877;DHT22;13692;47.480;19.216;2023-04-12T02:37:46;7.00;99.90
25877;DHT22;13692;47.480;19.216;2023-04-12T02:40:14;6.90;99.90
25877;DHT22;13692;47.480;19.216;2023-04-12T02:42:42;6.90;99.90
25877;DHT22;13692;47.480;19.216;2023-04-12T02:45:10;6.90;99.90
25877;DHT22;13692;47.480;19.216;2023-04-12T02:47:37;6.90;99.90
25877;DHT22;13692;47.480;19.216;2023-04-12T02:50:06;6.90;99.90
25877;DHT22;13692;47.480;19.216;2023-04-12T02:52:33;6.90;99.90
25877;DHT22;13692;47.480;19.216;2023-04-12T02:55:00;6.80;99.90
25877;DHT22;13692;47.480;19.216;2023-04-12T02:57:27;6.80;99.90
25877;DHT22;13692;47.480;19.216;2023-04-12T02:59:54;6.80;99.90
25877;DHT22;13692;47.480;19.216;2023-04-12T03:02:22;6.80;99.90
25877;DHT22;13692;47.480;19.216;2023-04-12T03:04:49;6.80;99.90
25877;DHT22;13692;47.480;19.216;2023-04-12T03:07:21;6.80;99.90
25877;DHT22;13692;47.480;19.216;2023-04-12T03:09:49;6.80;99.90
25877;DHT22;13692;47.480;19.216;2023-04-12T03:12:16;6.80;99.90
25877;DHT22;13692;47.480;19.216;2023-04-12T03:14:43;6.80;99.90
25877;DHT22;13692;47.480;19.216;2023-04-12T03:17:10;6.80;99.90
25877;DHT22;13692;47.480;19.216;2023-04-12T03:19:37;6.80;99.90
25877;DHT22;13692;47.480;19.216;2023-04-12T03:22:04;6.70;99.90
25877;DHT22;13692;47.480;19.216;2023-04-12T03:24:32;6.70;99.90
25877;DHT22;13692;47.480;19.216;2023-04-12T03:27:03;6.70;99.90
25877;DHT22;13692;47.480;19.216;2023-04-12T03:29:31;6.60;99.90
25877;DHT22;13692;47.480;19.216;2023-04-12T03:31:58;6.60;99.90
25877;DHT22;13692;47.480;19.216;2023-04-12T03:34:25;6.60;99.90
25877;DHT22;13692;47.480;19.216;2023-04-12T03:36:59;6.60;99.90
25877;DHT22;13692;47.480;19.216;2023-04-12T03:39:27;6.60;99.90
25877;DHT22;13692;47.480;19.216;2023-04-12T03:41:54;6.60;99.90
25877;DHT22;13692;47.480;19.216;2023-04-12T03:44:21;6.60;99.90
25877;DHT22;13692;47.480;19.216;2023-04-12T03:46:51;6.50;99.90
25877;DHT22;13692;47.480;19.216;2023-04-12T03:49:20;6.50;99.90
25877;DHT22;13692;47.480;19.216;2023-04-12T03:51:47;6.50;99.90
25877;DHT22;13692;47.480;19.216;2023-04-12T03:54:16;6.40;99.90
25877;DHT22;13692;47.480;19.216;2023-04-12T03:56:43;6.50;99.90
25877;DHT22;13692;47.480;19.216;2023-04-12T03:59:11;6.50;99.90
25877;DHT22;13692;47.480;19.216;2023-04-12T04:01:40;6.40;99.90
25877;DHT22;13692;47.480;19.216;2023-04-12T04:04:07;6.40;99.90
25877;DHT22;13692;47.480;19.216;2023-04-12T04:06:34;6.40;99.90
25877;DHT22;13692;47.480;19.216;2023-04-12T04:09:02;6.40;99.90
25877;DHT22;13692;47.480;19.216;2023-04-12T04:11:29;6.30;99.90
25877;DHT22;13692;47.480;19.216;2023-04-12T04:13:57;6.30;99.90
25877;DHT22;13692;47.480;19.216;2023-04-12T04:16:24;6.40;99.90
25877;DHT22;13692;47.480;19.216;2023-04-12T04:18:51;6.30;99.90
25877;DHT22;13692;47.480;19.216;2023-04-12T04:21:18;6.40;99.90
25877;DHT22;13692;47.480;19.216;2023-04-12T04:23:45;6.50;99.90
25877;DHT22;13692;47.480;19.216;2023-04-12T04:26:13;6.60;99.90
25877;DHT22;13692;47.480;19.216;2023-04-12T04:28:43;6.80;99.90
25877;DHT22;13692;47.480;19.216;2023-04-12T04:31:13;7.00;99.90
25877;DHT22;13692;47.480;19.216;2023-04-12T04:33:43;7.30;99.90
25877;DHT22;13692;47.480;19.216;2023-04-12T04:36:10;7.60;99.90
25877;DHT22;13692;47.480;19.216;2023-04-12T04:38:38;7.90;99.90
25877;DHT22;13692;47.480;19.216;2023-04-12T04:41:06;8.20;99.90
25877;DHT22;13692;47.480;19.216;2023-04-12T04:43:34;8.40;99.90
25877;DHT22;13692;47.480;19.216;2023-04-12T04:46:05;8.60;99.90
25877;DHT22;13692;47.480;19.216;2023-04-12T04:48:32;8.80;99.90
25877;DHT22;13692;47.480;19.216;2023-04-12T04:51:00;8.90;99.90
25877;DHT22;13692;47.480;19.216;2023-04-12T04:53:27;9.20;99.90
25877;DHT22;13692;47.480;19.216;2023-04-12T04:55:58;9.40;99.90
25877;DHT22;13692;47.480;19.216;2023-04-12T04:58:25;9.70;99.90
25877;DHT22;13692;47.480;19.216;2023-04-12T05:00:57;10.00;99.90
25877;DHT22;13692;47.480;19.216;2023-04-12T05:03:25;10.30;99.90
25877;DHT22;13692;47.480;19.216;2023-04-12T05:05:56;10.70;99.90
25877;DHT22;13692;47.480;19.216;2023-04-12T05:08:23;11.00;99.90
25877;DHT22;13692;47.480;19.216;2023-04-12T05:10:51;11.30;99.90
25877;DHT22;13692;47.480;19.216;2023-04-12T05:13:18;11.60;99.90
25877;DHT22;13692;47.480;19.216;2023-04-12T05:15:47;12.00;99.90
25877;DHT22;13692;47.480;19.216;2023-04-12T05:18:14;12.20;99.90
25877;DHT22;13692;47.480;19.216;2023-04-12T05:20:41;12.60;99.90
25877;DHT22;13692;47.480;19.216;2023-04-12T05:23:08;12.90;99.90
25877;DHT22;13692;47.480;19.216;2023-04-12T05:25:35;13.10;99.90
25877;DHT22;13692;47.480;19.216;2023-04-12T05:28:03;13.40;99.90
25877;DHT22;13692;47.480;19.216;2023-04-12T05:30:30;13.70;99.90
25877;DHT22;13692;47.480;19.216;2023-04-12T05:32:57;13.90;99.90
25877;DHT22;13692;47.480;19.216;2023-04-12T05:35:24;14.20;99.90
25877;DHT22;13692;47.480;19.216;2023-04-12T05:37:51;14.50;99.90
25877;DHT22;13692;47.480;19.216;2023-04-12T05:40:18;14.60;99.90
25877;DHT22;13692;47.480;19.216;2023-04-12T05:42:45;14.90;99.90
25877;DHT22;13692;47.480;19.216;2023-04-12T05:45:12;15.20;99.90
25877;DHT22;13692;47.480;19.216;2023-04-12T05:47:39;15.40;99.90
25877;DHT22;13692;47.480;19.216;2023-04-12T05:50:06;15.60;99.80
25877;DHT22;13692;47.480;19.216;2023-04-12T05:52:35;15.80;99.10
25877;DHT22;13692;47.480;19.216;2023-04-12T05:55:02;15.90;98.20
25877;DHT22;13692;47.480;19.216;2023-04-12T05:57:29;16.00;98.60
25877;DHT22;13692;47.480;19.216;2023-04-12T05:59:56;16.20;97.50
25877;DHT22;13692;47.480;19.216;2023-04-12T06:02:23;16.40;96.60
25877;DHT22;13692;47.480;19.216;2023-04-12T06:04:52;16.50;96.40
25877;DHT22;13692;47.480;19.216;2023-04-12T06:07:21;16.80;95.40
25877;DHT22;13692;47.480;19.216;2023-04-12T06:09:48;17.00;94.80
25877;DHT22;13692;47.480;19.216;2023-04-12T06:12:15;17.00;94.40
25877;DHT22;13692;47.480;19.216;2023-04-12T06:14:42;17.00;93.60
25877;DHT22;13692;47.480;19.216;2023-04-12T06:17:09;17.20;93.50
25877;DHT22;13692;47.480;19.216;2023-04-12T06:19:36;17.40;92.50
25877;DHT22;13692;47.480;19.216;2023-04-12T06:22:03;17.50;92.10
25877;DHT22;13692;47.480;19.216;2023-04-12T06:24:30;17.60;91.90
25877;DHT22;13692;47.480;19.216;2023-04-12T06:26:57;17.80;91.90
25877;DHT22;13692;47.480;19.216;2023-04-12T06:29:24;17.90;91.40
25877;DHT22;13692;47.480;19.216;2023-04-12T06:31:51;18.00;91.20
25877;DHT22;13692;47.480;19.216;2023-04-12T06:34:18;17.90;91.00
25877;DHT22;13692;47.480;19.216;2023-04-12T06:36:45;17.80;91.00
25877;DHT22;13692;47.480;19.216;2023-04-12T06:39:13;17.90;91.40
25877;DHT22;13692;47.480;19.216;2023-04-12T06:41:42;18.00;90.90
25877;DHT22;13692;47.480;19.216;2023-04-12T06:44:16;18.00;90.70
25877;DHT22;13692;47.480;19.216;2023-04-12T06:46:42;18.10;90.80
25877;DHT22;13692;47.480;19.216;2023-04-12T06:49:10;18.40;90.60
25877;DHT22;13692;47.480;19.216;2023-04-12T06:51:36;18.60;90.50
25877;DHT22;13692;47.480;19.216;2023-04-12T06:54:03;18.70;89.50
25877;DHT22;13692;47.480;19.216;2023-04-12T06:56:30;18.80;89.60
25877;DHT22;13692;47.480;19.216;2023-04-12T06:58:57;18.80;89.20
25877;DHT22;13692;47.480;19.216;2023-04-12T07:01:25;18.80;90.00
25877;DHT22;13692;47.480;19.216;2023-04-12T07:03:52;19.10;87.70
25877;DHT22;13692;47.480;19.216;2023-04-12T07:06:19;19.20;87.80
25877;DHT22;13692;47.480;19.216;2023-04-12T07:08:51;19.30;86.70
25877;DHT22;13692;47.480;19.216;2023-04-12T07:11:20;19.30;87.40
25877;DHT22;13692;47.480;19.216;2023-04-12T07:13:49;19.30;86.70
25877;DHT22;13692;47.480;19.216;2023-04-12T07:16:17;19.40;85.50
25877;DHT22;13692;47.480;19.216;2023-04-12T07:18:44;19.30;85.40
25877;DHT22;13692;47.480;19.216;2023-04-12T07:21:11;19.50;85.20
25877;DHT22;13692;47.480;19.216;2023-04-12T07:23:43;19.50;85.70
25877;DHT22;13692;47.480;19.216;2023-04-12T07:26:10;19.50;85.30
25877;DHT22;13692;47.480;19.216;2023-04-12T07:28:37;19.60;82.70
25877;DHT22;13692;47.480;19.216;2023-04-12T07:31:05;19.80;83.20
25877;DHT22;13692;47.480;19.216;2023-04-12T07:33:33;19.80;82.40
25877;DHT22;13692;47.480;19.216;2023-04-12T07:36:07;19.90;83.20
25877;DHT22;13692;47.480;19.216;2023-04-12T07:38:34;19.90;82.40
25877;DHT22;13692;47.480;19.216;2023-04-12T07:41:01;19.80;83.00
25877;DHT22;13692;47.480;19.216;2023-04-12T07:43:28;19.90;81.60
25877;DHT22;13692;47.480;19.216;2023-04-12T07:45:55;19.90;82.80
25877;DHT22;13692;47.480;19.216;2023-04-12T07:48:22;20.10;82.40
25877;DHT22;13692;47.480;19.216;2023-04-12T07:50:49;20.30;80.90
25877;DHT22;13692;47.480;19.216;2023-04-12T07:55:49;20.70;79.00
25877;DHT22;13692;47.480;19.216;2023-04-12T07:58:17;20.60;77.70
25877;DHT22;13692;47.480;19.216;2023-04-12T08:00:45;20.70;77.20
25877;DHT22;13692;47.480;19.216;2023-04-12T08:03:14;20.70;77.60
25877;DHT22;13692;47.480;19.216;2023-04-12T08:05:42;20.80;76.80
25877;DHT22;13692;47.480;19.216;2023-04-12T08:08:10;20.90;76.90
25877;DHT22;13692;47.480;19.216;2023-04-12T08:10:38;21.00;76.60
25877;DHT22;13692;47.480;19.216;2023-04-12T08:13:05;21.10;75.40
25877;DHT22;13692;47.480;19.216;2023-04-12T08:15:32;21.20;75.50
25877;DHT22;13692;47.480;19.216;2023-04-12T08:18:01;21.20;75.60
25877;DHT22;13692;47.480;19.216;2023-04-12T08:20:28;21.30;76.40
25877;DHT22;13692;47.480;19.216;2023-04-12T08:22:55;21.40;76.50
25877;DHT22;13692;47.480;19.216;2023-04-12T08:25:23;21.50;74.30
25877;DHT22;13692;47.480;19.216;2023-04-12T08:27:50;21.40;73.40
25877;DHT22;13692;47.480;19.216;2023-04-12T08:30:18;21.40;75.50
25877;DHT22;13692;47.480;19.216;2023-04-12T08:32:46;21.20;74.10
25877;DHT22;13692;47.480;19.216;2023-04-12T08:35:13;21.30;75.20
25877;DHT22;13692;47.480;19.216;2023-04-12T08:37:40;21.40;73.90
25877;DHT22;13692;47.480;19.216;2023-04-12T08:40:08;21.40;72.80
25877;DHT22;13692;47.480;19.216;2023-04-12T08:42:36;21.40;73.60
25877;DHT22;13692;47.480;19.216;2023-04-12T08:45:07;21.50;73.10
25877;DHT22;13692;47.480;19.216;2023-04-12T08:47:37;21.60;73.30
25877;DHT22;13692;47.480;19.216;2023-04-12T08:50:06;21.90;71.80
25877;DHT22;13692;47.480;19.216;2023-04-12T08:52:36;22.10;72.00
25877;DHT22;13692;47.480;19.216;2023-04-12T08:55:04;22.30;71.70
25877;DHT22;13692;47.480;19.216;2023-04-12T08:57:33;22.50;71.10
25877;DHT22;13692;47.480;19.216;2023-04-12T09:00:02;22.60;70.50
25877;DHT22;13692;47.480;19.216;2023-04-12T09:02:29;22.60;69.70
25877;DHT22;13692;47.480;19.216;2023-04-12T09:04:57;22.60;68.80
25877;DHT22;13692;47.480;19.216;2023-04-12T09:07:24;22.60;66.50
25877;DHT22;13692;47.480;19.216;2023-04-12T09:09:54;22.30;67.20
25877;DHT22;13692;47.480;19.216;2023-04-12T09:12:53;21.30;68.90
25877;DHT22;13692;47.480;19.216;2023-04-12T09:15:21;21.20;70.60
25877;DHT22;13692;47.480;19.216;2023-04-12T09:17:47;21.50;69.80
25877;DHT22;13692;47.480;19.216;2023-04-12T09:22:42;22.00;68.30
25877;DHT22;13692;47.480;19.216;2023-04-12T09:25:12;22.20;69.30
25877;DHT22;13692;47.480;19.216;2023-04-12T09:27:52;22.50;68.80
25877;DHT22;13692;47.480;19.216;2023-04-12T09:30:23;22.80;67.20
25877;DHT22;13692;47.480;19.216;2023-04-12T09:32:51;22.80;66.60
25877;DHT22;13692;47.480;19.216;2023-04-12T09:35:40;22.80;65.80
25877;DHT22;13692;47.480;19.216;2023-04-12T09:38:09;22.80;66.50
25877;DHT22;13692;47.480;19.216;2023-04-12T09:40:37;22.60;64.90
25877;DHT22;13692;47.480;19.216;2023-04-12T09:43:05;22.80;66.10
25877;DHT22;13692;47.480;19.216;2023-04-12T09:45:37;22.90;65.30
25877;DHT22;13692;47.480;19.216;2023-04-12T09:48:06;22.40;65.10
25877;DHT22;13692;47.480;19.216;2023-04-12T09:50:44;21.50;67.10
25877;DHT22;13692;47.480;19.216;2023-04-12T09:53:16;20.70;69.60
25877;DHT22;13692;47.480;19.216;2023-04-12T09:55:48;20.20;69.70
25877;DHT22;13692;47.480;19.216;2023-04-12T09:58:18;19.80;70.40
25877;DHT22;13692;47.480;19.216;2023-04-12T10:00:47;20.10;70.30
25877;DHT22;13692;47.480;19.216;2023-04-12T10:03:14;20.50;71.20
25877;DHT22;13692;47.480;19.216;2023-04-12T10:05:42;20.70;67.70
25877;DHT22;13692;47.480;19.216;2023-04-12T10:08:11;20.50;69.80
25877;DHT22;13692;47.480;19.216;2023-04-12T10:10:39;20.60;69.70
25877;DHT22;13692;47.480;19.216;2023-04-12T10:13:06;20.80;70.90
25877;DHT22;13692;47.480;19.216;2023-04-12T10:15:36;20.70;69.20
25877;DHT22;13692;47.480;19.216;2023-04-12T10:18:05;20.40;70.00
25877;DHT22;13692;47.480;19.216;2023-04-12T10:20:33;20.00;70.60
25877;DHT22;13692;47.480;19.216;2023-04-12T10:23:00;19.60;72.40
25877;DHT22;13692;47.480;19.216;2023-04-12T10:25:28;19.40;72.20
25877;DHT22;13692;47.480;19.216;2023-04-12T10:28:16;18.80;73.30
25877;DHT22;13692;47.480;19.216;2023-04-12T10:30:44;18.60;74.90
25877;DHT22;13692;47.480;19.216;2023-04-12T10:33:16;18.50;75.30
25877;DHT22;13692;47.480;19.216;2023-04-12T10:35:51;18.40;75.20
25877;DHT22;13692;47.480;19.216;2023-04-12T10:38:19;18.30;76.40
25877;DHT22;13692;47.480;19.216;2023-04-12T10:41:21;18.50;76.30
25877;DHT22;13692;47.480;19.216;2023-04-12T10:43:53;18.60;75.90
25877;DHT22;13692;47.480;19.216;2023-04-12T10:49:13;18.50;73.70
25877;DHT22;13692;47.480;19.216;2023-04-12T10:56:58;17.70;77.30
25877;DHT22;13692;47.480;19.216;2023-04-12T10:59:25;17.70;78.00
25877;DHT22;13692;47.480;19.216;2023-04-12T11:02:07;17.80;78.10
25877;DHT22;13692;47.480;19.216;2023-04-12T11:04:35;17.60;77.40
25877;DHT22;13692;47.480;19.216;2023-04-12T11:07:06;17.30;77.50
25877;DHT22;13692;47.480;19.216;2023-04-12T11:14:47;17.70;79.30
25877;DHT22;13692;47.480;19.216;2023-04-12T11:19:43;18.00;75.90
25877;DHT22;13692;47.480;19.216;2023-04-12T11:22:14;17.80;75.10
25877;DHT22;13692;47.480;19.216;2023-04-12T11:24:43;17.80;77.10
25877;DHT22;13692;47.480;19.216;2023-04-12T11:27:11;17.90;76.00
25877;DHT22;13692;47.480;19.216;2023-04-12T11:29:38;18.00;75.80
25877;DHT22;13692;47.480;19.216;2023-04-12T11:32:09;18.00;74.90
25877;DHT22;13692;47.480;19.216;2023-04-12T11:34:39;18.10;74.70
25877;DHT22;13692;47.480;19.216;2023-04-12T11:37:07;18.30;74.80
25877;DHT22;13692;47.480;19.216;2023-04-12T11:39:42;18.30;75.00
25877;DHT22;13692;47.480;19.216;2023-04-12T11:44:42;18.30;74.40
25877;DHT22;13692;47.480;19.216;2023-04-12T11:47:25;18.00;73.30
25877;DHT22;13692;47.480;19.216;2023-04-12T11:49:54;17.90;74.90
25877;DHT22;13692;47.480;19.216;2023-04-12T11:52:27;17.90;75.20
25877;DHT22;13692;47.480;19.216;2023-04-12T11:54:57;17.90;74.30
25877;DHT22;13692;47.480;19.216;2023-04-12T11:57:24;18.00;75.30
25877;DHT22;13692;47.480;19.216;2023-04-12T11:59:51;18.10;74.60
25877;DHT22;13692;47.480;19.216;2023-04-12T12:02:19;17.90;73.40
25877;DHT22;13692;47.480;19.216;2023-04-12T12:04:49;17.80;74.00
25877;DHT22;13692;47.480;19.216;2023-04-12T12:07:18;17.70;73.20
25877;DHT22;13692;47.480;19.216;2023-04-12T12:09:48;17.70;75.50
25877;DHT22;13692;47.480;19.216;2023-04-12T12:12:17;17.70;75.10
25877;DHT22;13692;47.480;19.216;2023-04-12T12:14:44;17.70;73.80
25877;DHT22;13692;47.480;19.216;2023-04-12T12:17:14;17.60;73.80
25877;DHT22;13692;47.480;19.216;2023-04-12T12:19:45;17.70;75.00
25877;DHT22;13692;47.480;19.216;2023-04-12T12:24:58;17.40;74.00
25877;DHT22;13692;47.480;19.216;2023-04-12T12:27:39;17.50;74.20
25877;DHT22;13692;47.480;19.216;2023-04-12T12:30:10;17.60;73.30
25877;DHT22;13692;47.480;19.216;2023-04-12T12:32:38;17.60;73.50
25877;DHT22;13692;47.480;19.216;2023-04-12T12:35:10;17.60;72.30
25877;DHT22;13692;47.480;19.216;2023-04-12T12:37:51;17.70;72.30
25877;DHT22;13692;47.480;19.216;2023-04-12T12:40:27;17.80;72.10
25877;DHT22;13692;47.480;19.216;2023-04-12T12:42:56;17.60;71.30
25877;DHT22;13692;47.480;19.216;2023-04-12T12:45:24;17.60;72.00
25877;DHT22;13692;47.480;19.216;2023-04-12T12:47:57;17.60;72.70
25877;DHT22;13692;47.480;19.216;2023-04-12T12:50:26;17.60;71.20
25877;DHT22;13692;47.480;19.216;2023-04-12T12:52:54;17.50;72.40
25877;DHT22;13692;47.480;19.216;2023-04-12T12:55:23;17.50;72.20
25877;DHT22;13692;47.480;19.216;2023-04-12T12:57:52;17.50;72.00
25877;DHT22;13692;47.480;19.216;2023-04-12T13:00:33;17.50;73.10
25877;DHT22;13692;47.480;19.216;2023-04-12T13:03:01;17.50;72.40
25877;DHT22;13692;47.480;19.216;2023-04-12T13:05:29;17.60;71.60
25877;DHT22;13692;47.480;19.216;2023-04-12T13:07:56;17.50;71.40
25877;DHT22;13692;47.480;19.216;2023-04-12T13:10:22;17.50;71.60
25877;DHT22;13692;47.480;19.216;2023-04-12T13:12:49;17.50;71.70
25877;DHT22;13692;47.480;19.216;2023-04-12T13:15:17;17.40;72.40
25877;DHT22;13692;47.480;19.216;2023-04-12T13:17:53;17.50;71.50
25877;DHT22;13692;47.480;19.216;2023-04-12T13:20:21;17.40;70.00
25877;DHT22;13692;47.480;19.216;2023-04-12T13:22:49;17.40;70.10
25877;DHT22;13692;47.480;19.216;2023-04-12T13:25:17;17.40;69.50
25877;DHT22;13692;47.480;19.216;2023-04-12T13:27:48;17.30;70.50
25877;DHT22;13692;47.480;19.216;2023-04-12T13:30:16;17.40;70.90
25877;DHT22;13692;47.480;19.216;2023-04-12T13:32:43;17.40;71.60
25877;DHT22;13692;47.480;19.216;2023-04-12T13:35:10;17.40;71.30
25877;DHT22;13692;47.480;19.216;2023-04-12T13:37:38;17.50;71.80
25877;DHT22;13692;47.480;19.216;2023-04-12T13:40:05;17.50;71.20
25877;DHT22;13692;47.480;19.216;2023-04-12T13:42:33;17.50;70.10
25877;DHT22;13692;47.480;19.216;2023-04-12T13:45:00;17.40;69.40
25877;DHT22;13692;47.480;19.216;2023-04-12T13:47:27;17.40;69.60
25877;DHT22;13692;47.480;19.216;2023-04-12T13:49:54;17.30;69.90
25877;DHT22;13692;47.480;19.216;2023-04-12T13:52:21;17.30;70.80
25877;DHT22;13692;47.480;19.216;2023-04-12T13:54:48;17.00;68.30
25877;DHT22;13692;47.480;19.216;2023-04-12T13:57:14;16.90;68.50
25877;DHT22;13692;47.480;19.216;2023-04-12T13:59:41;16.90;70.30
25877;DHT22;13692;47.480;19.216;2023-04-12T14:02:08;17.00;70.30
25877;DHT22;13692;47.480;19.216;2023-04-12T14:04:35;17.00;69.00
25877;DHT22;13692;47.480;19.216;2023-04-12T14:07:02;17.00;69.10
25877;DHT22;13692;47.480;19.216;2023-04-12T14:09:30;17.00;68.30
25877;DHT22;13692;47.480;19.216;2023-04-12T14:11:58;17.00;67.80
25877;DHT22;13692;47.480;19.216;2023-04-12T14:14:27;17.00;66.70
25877;DHT22;13692;47.480;19.216;2023-04-12T14:16:55;17.10;66.70
25877;DHT22;13692;47.480;19.216;2023-04-12T14:19:27;17.10;66.70
25877;DHT22;13692;47.480;19.216;2023-04-12T14:21:54;17.10;66.60
25877;DHT22;13692;47.480;19.216;2023-04-12T14:24:22;17.10;66.60
25877;DHT22;13692;47.480;19.216;2023-04-12T14:26:49;17.10;66.60
25877;DHT22;13692;47.480;19.216;2023-04-12T14:29:16;17.00;68.20
25877;DHT22;13692;47.480;19.216;2023-04-12T14:31:43;17.00;67.00
25877;DHT22;13692;47.480;19.216;2023-04-12T14:34:10;17.10;67.20
25877;DHT22;13692;47.480;19.216;2023-04-12T14:36:37;16.90;64.70
25877;DHT22;13692;47.480;19.216;2023-04-12T14:39:04;16.80;66.60
25877;DHT22;13692;47.480;19.216;2023-04-12T14:41:35;16.90;65.90
25877;DHT22;13692;47.480;19.216;2023-04-12T14:44:04;16.90;65.80
25877;DHT22;13692;47.480;19.216;2023-04-12T14:46:31;17.00;66.70
25877;DHT22;13692;47.480;19.216;2023-04-12T14:48:58;16.90;64.00
25877;DHT22;13692;47.480;19.216;2023-04-12T14:51:28;16.80;65.40
25877;DHT22;13692;47.480;19.216;2023-04-12T14:53:55;16.70;68.00
25877;DHT22;13692;47.480;19.216;2023-04-12T14:56:24;16.80;67.30
25877;DHT22;13692;47.480;19.216;2023-04-12T14:58:55;16.80;65.80
25877;DHT22;13692;47.480;19.216;2023-04-12T15:01:23;16.70;63.30
25877;DHT22;13692;47.480;19.216;2023-04-12T15:03:51;16.60;64.40
25877;DHT22;13692;47.480;19.216;2023-04-12T15:06:22;16.60;64.70
25877;DHT22;13692;47.480;19.216;2023-04-12T15:08:49;16.60;65.90
25877;DHT22;13692;47.480;19.216;2023-04-12T15:11:20;16.70;65.50
25877;DHT22;13692;47.480;19.216;2023-04-12T15:13:53;16.70;64.10
25877;DHT22;13692;47.480;19.216;2023-04-12T15:16:21;16.60;65.50
25877;DHT22;13692;47.480;19.216;2023-04-12T15:18:49;16.60;65.50
25877;DHT22;13692;47.480;19.216;2023-04-12T15:21:17;16.60;65.90
25877;DHT22;13692;47.480;19.216;2023-04-12T15:23:44;16.60;66.30
25877;DHT22;13692;47.480;19.216;2023-04-12T15:26:12;16.60;66.10
25877;DHT22;13692;47.480;19.216;2023-04-12T15:28:40;16.60;65.50
25877;DHT22;13692;47.480;19.216;2023-04-12T15:31:07;16.50;65.50
25877;DHT22;13692;47.480;19.216;2023-04-12T15:33:35;16.50;65.30
25877;DHT22;13692;47.480;19.216;2023-04-12T15:36:03;16.50;65.70
25877;DHT22;13692;47.480;19.216;2023-04-12T15:38:31;16.40;64.90
25877;DHT22;13692;47.480;19.216;2023-04-12T15:40:59;16.20;63.20
25877;DHT22;13692;47.480;19.216;2023-04-12T15:43:27;16.20;64.30
25877;DHT22;13692;47.480;19.216;2023-04-12T15:45:55;16.30;65.10
25877;DHT22;13692;47.480;19.216;2023-04-12T15:48:23;16.30;64.00
25877;DHT22;13692;47.480;19.216;2023-04-12T15:50:51;16.20;63.80
25877;DHT22;13692;47.480;19.216;2023-04-12T15:53:22;16.20;63.90
25877;DHT22;13692;47.480;19.216;2023-04-12T15:55:50;16.20;64.70
25877;DHT22;13692;47.480;19.216;2023-04-12T15:58:24;16.30;63.40
25877;DHT22;13692;47.480;19.216;2023-04-12T16:00:53;16.20;63.60
25877;DHT22;13692;47.480;19.216;2023-04-12T16:03:21;16.20;62.20
25877;DHT22;13692;47.480;19.216;2023-04-12T16:05:52;16.20;63.50
25877;DHT22;13692;47.480;19.216;2023-04-12T16:08:20;16.10;64.30